createdAt,value
2018-07-19T00:00:51.857Z,76.60
2018-07-19T00:03:20.063Z,76.60
2018-07-19T00:05:48.274Z,76.50
2018-07-19T00:08:16.475Z,76.80
2018-07-19T00:10:44.674Z,76.60
2018-07-19T00:13:12.894Z,76.50
2018-07-19T00:15:41.104Z,76.80
2018-07-19T00:18:09.314Z,77.20
2018-07-19T00:20:37.536Z,77.70
2018-07-19T00:23:05.766Z,78.60
2018-07-19T00:25:33.969Z,78.90
2018-07-19T00:28:02.182Z,79.00
2018-07-19T00:30:30.402Z,78.50
2018-07-19T00:32:58.615Z,78.30
2018-07-19T00:35:26.828Z,78.70
2018-07-19T00:37:55.042Z,78.80
2018-07-19T00:40:23.257Z,78.60
2018-07-19T00:42:51.570Z,78.20
2018-07-19T00:45:19.776Z,78.90
2018-07-19T00:47:47.983Z,79.20
2018-07-19T00:50:16.198Z,79.30
2018-07-19T00:52:44.416Z,79.70
2018-07-19T00:55:12.646Z,80.20
2018-07-19T00:57:40.860Z,80.10
2018-07-19T01:00:09.074Z,80.10
2018-07-19T01:02:37.274Z,79.60
2018-07-19T01:05:05.495Z,79.50
2018-07-19T01:07:33.706Z,79.80
2018-07-19T01:10:01.936Z,79.90
2018-07-19T01:12:30.148Z,80.20
2018-07-19T01:14:58.368Z,80.50
2018-07-19T01:17:26.580Z,81.10
2018-07-19T01:19:54.786Z,80.80
2018-07-19T01:22:23.003Z,80.90
2018-07-19T01:24:52.114Z,81.20
2018-07-19T01:27:20.314Z,81.10
2018-07-19T01:29:48.527Z,81.40
2018-07-19T01:32:16.726Z,81.60
2018-07-19T01:34:44.934Z,81.70
2018-07-19T01:37:13.143Z,81.60
2018-07-19T01:39:41.354Z,81.80
2018-07-19T01:42:26.254Z,81.90
2018-07-19T01:44:54.471Z,81.70
2018-07-19T01:47:22.667Z,81.60
2018-07-19T01:49:50.886Z,81.60
2018-07-19T01:52:19.090Z,81.30
2018-07-19T01:54:47.307Z,81.90
2018-07-19T01:57:15.506Z,81.70
2018-07-19T01:59:43.718Z,81.50
2018-07-19T02:02:11.933Z,82.00
2018-07-19T02:04:40.152Z,82.10
2018-07-19T02:07:08.365Z,82.00
2018-07-19T02:09:36.575Z,82.10
2018-07-19T02:12:04.779Z,82.30
2018-07-19T02:14:32.990Z,82.50
2018-07-19T02:17:01.195Z,82.50
2018-07-19T02:19:29.406Z,82.70
2018-07-19T02:21:57.611Z,82.70
2018-07-19T02:24:25.821Z,82.70
2018-07-19T02:26:54.030Z,83.00
2018-07-19T02:29:22.246Z,83.10
2018-07-19T02:31:50.451Z,83.20
2018-07-19T02:34:18.671Z,83.10
2018-07-19T02:36:46.882Z,82.90
2018-07-19T02:39:15.091Z,83.20
2018-07-19T02:41:43.300Z,83.30
2018-07-19T02:44:11.511Z,83.40
2018-07-19T02:46:39.715Z,83.30
2018-07-19T02:49:07.918Z,83.40
2018-07-19T02:51:36.123Z,83.40
2018-07-19T02:54:04.327Z,83.60
2018-07-19T02:56:32.554Z,83.40
2018-07-19T02:59:00.762Z,83.60
2018-07-19T03:01:28.976Z,83.70
2018-07-19T03:03:57.178Z,83.80
2018-07-19T03:06:25.448Z,84.10
2018-07-19T03:08:53.599Z,83.90
2018-07-19T03:11:21.812Z,83.90
2018-07-19T03:13:50.014Z,84.20
2018-07-19T03:16:18.230Z,84.30
2018-07-19T03:18:46.439Z,84.50
2018-07-19T03:21:14.654Z,84.40
2018-07-19T03:23:42.847Z,84.50
2018-07-19T03:26:11.063Z,84.60
2018-07-19T03:28:39.266Z,84.80
2018-07-19T03:31:07.568Z,85.00
2018-07-19T03:33:35.690Z,85.30
2018-07-19T03:36:03.898Z,85.50
2018-07-19T03:38:32.106Z,85.50
2018-07-19T03:41:00.319Z,85.60
2018-07-19T03:43:28.523Z,85.30
2018-07-19T03:45:56.735Z,85.00
2018-07-19T03:48:24.942Z,85.10
2018-07-19T03:50:53.155Z,85.20
2018-07-19T03:53:21.358Z,85.30
2018-07-19T03:55:49.572Z,85.30
2018-07-19T03:58:17.770Z,85.40
2018-07-19T04:00:45.979Z,86.10
2018-07-19T04:03:14.285Z,85.20
2018-07-19T04:05:42.478Z,85.10
2018-07-19T04:08:10.703Z,84.90
2018-07-19T04:10:38.915Z,85.00
2018-07-19T04:13:07.115Z,84.90
2018-07-19T04:15:35.330Z,84.90
2018-07-19T04:18:03.531Z,84.70
2018-07-19T04:20:31.742Z,84.70
2018-07-19T04:22:59.942Z,84.30
2018-07-19T04:25:28.155Z,84.00
2018-07-19T04:27:56.360Z,83.80
2018-07-19T04:30:24.566Z,83.50
2018-07-19T04:32:52.778Z,83.30
2018-07-19T04:35:20.979Z,83.00
2018-07-19T04:37:49.191Z,83.00
2018-07-19T04:40:17.397Z,82.70
2018-07-19T04:42:45.614Z,82.50
2018-07-19T04:45:13.815Z,82.20
2018-07-19T04:47:42.023Z,82.00
2018-07-19T04:50:10.226Z,81.40
2018-07-19T04:52:38.440Z,80.50
2018-07-19T04:55:06.639Z,79.10
2018-07-19T04:57:34.079Z,79.00
2018-07-19T05:00:02.286Z,73.80
2018-07-19T05:02:30.495Z,71.20
2018-07-19T05:04:58.694Z,69.80
2018-07-19T05:07:26.903Z,66.90
2018-07-19T05:09:55.103Z,65.30
2018-07-19T05:12:23.318Z,63.80
2018-07-19T05:14:51.522Z,62.90
2018-07-19T05:17:19.727Z,61.90
2018-07-19T05:19:47.926Z,61.20
2018-07-19T05:22:16.127Z,60.40
2018-07-19T05:24:43.559Z,60.40
2018-07-19T05:27:11.762Z,61.90
2018-07-19T05:29:39.966Z,62.50
2018-07-19T05:32:08.178Z,63.20
2018-07-19T05:34:36.407Z,63.70
2018-07-19T05:37:04.587Z,64.30
2018-07-19T05:39:32.782Z,64.70
2018-07-19T05:42:01.008Z,65.00
2018-07-19T05:44:29.195Z,65.20
2018-07-19T05:46:57.420Z,65.20
2018-07-19T05:49:25.607Z,64.90
2018-07-19T05:51:53.819Z,64.60
2018-07-19T05:54:22.024Z,64.20
2018-07-19T05:56:50.227Z,63.80
2018-07-19T05:59:18.436Z,63.70
2018-07-19T06:01:46.639Z,63.50
2018-07-19T06:04:14.834Z,63.40
2018-07-19T06:06:43.048Z,63.40
2018-07-19T06:09:11.246Z,63.50
2018-07-19T06:11:39.451Z,63.60
2018-07-19T06:14:07.646Z,63.40
2018-07-19T06:16:35.859Z,63.00
2018-07-19T06:19:04.055Z,62.60
2018-07-19T06:21:32.281Z,62.10
2018-07-19T06:24:00.484Z,61.40
2018-07-19T06:26:28.686Z,60.60
2018-07-19T06:28:56.891Z,60.00
2018-07-19T06:31:25.109Z,59.90
2018-07-19T06:33:53.306Z,59.60
2018-07-19T06:36:21.511Z,59.30
2018-07-19T06:38:49.714Z,59.00
2018-07-19T06:41:17.977Z,58.50
2018-07-19T06:43:45.363Z,58.50
2018-07-19T06:46:13.563Z,58.10
2018-07-19T06:48:41.772Z,57.80
2018-07-19T06:51:09.971Z,58.00
2018-07-19T06:53:38.178Z,58.30
2018-07-19T06:56:06.378Z,58.00
2018-07-19T06:58:34.595Z,57.40
2018-07-19T07:01:02.795Z,57.00
2018-07-19T07:03:31.010Z,56.90
2018-07-19T07:05:59.211Z,56.30
2018-07-19T07:08:27.419Z,56.10
2018-07-19T07:10:55.631Z,56.00
2018-07-19T07:13:23.832Z,55.90
2018-07-19T07:15:52.039Z,56.10
2018-07-19T07:18:20.238Z,56.20
2018-07-19T07:20:48.447Z,56.60
2018-07-19T07:23:16.655Z,56.40
2018-07-19T07:25:44.855Z,56.30
2018-07-19T07:28:12.305Z,56.30
2018-07-19T07:30:40.499Z,55.60
2018-07-19T07:33:08.714Z,55.30
2018-07-19T07:35:36.910Z,54.50
2018-07-19T07:38:05.115Z,52.80
2018-07-19T07:40:33.330Z,51.60
2018-07-19T07:43:01.540Z,50.40
2018-07-19T07:45:28.978Z,50.40
2018-07-19T07:47:57.182Z,47.70
2018-07-19T07:50:25.386Z,47.60
2018-07-19T07:52:53.594Z,46.70
2018-07-19T07:55:21.798Z,46.30
2018-07-19T07:57:50.030Z,46.60
2018-07-19T08:00:18.230Z,46.10
2018-07-19T08:02:46.438Z,44.50
2018-07-19T08:05:14.643Z,44.70
2018-07-19T08:07:42.864Z,43.50
2018-07-19T08:10:11.064Z,43.00
2018-07-19T08:12:39.280Z,43.20
2018-07-19T08:15:07.483Z,43.50
2018-07-19T08:17:35.687Z,43.60
2018-07-19T08:20:03.892Z,43.70
2018-07-19T08:22:32.101Z,42.00
2018-07-19T08:25:00.311Z,40.50
2018-07-19T08:27:27.743Z,40.50
2018-07-19T08:29:55.950Z,39.80
2018-07-19T08:32:24.212Z,40.60
2018-07-19T08:34:52.374Z,40.20
2018-07-19T08:37:20.575Z,40.00
2018-07-19T08:39:48.793Z,39.50
2018-07-19T08:42:16.986Z,38.60
2018-07-19T08:44:45.194Z,37.00
2018-07-19T08:47:13.398Z,34.60
2018-07-19T08:49:41.611Z,33.20
2018-07-19T08:52:09.811Z,33.20
2018-07-19T08:54:38.019Z,33.80
2018-07-19T08:57:06.223Z,34.60
2018-07-19T08:59:34.431Z,32.90
2018-07-19T09:02:02.855Z,33.00
2018-07-19T09:04:31.059Z,33.00
2018-07-19T09:06:59.258Z,33.00
2018-07-19T09:09:27.467Z,33.60
2018-07-19T09:11:55.675Z,33.90
2018-07-19T09:14:23.885Z,34.50
2018-07-19T09:16:52.090Z,35.60
2018-07-19T09:19:20.299Z,35.50
2018-07-19T09:21:48.517Z,35.50
2018-07-19T09:24:16.715Z,36.00
2018-07-19T09:26:44.920Z,36.10
2018-07-19T09:29:13.126Z,35.00
2018-07-19T09:31:41.327Z,35.00
2018-07-19T09:34:09.535Z,34.70
2018-07-19T09:36:37.734Z,34.80
2018-07-19T09:39:05.943Z,34.80
2018-07-19T09:41:34.139Z,34.60
2018-07-19T09:44:02.359Z,35.60
2018-07-19T09:46:30.559Z,36.80
2018-07-19T09:48:58.797Z,36.80
2018-07-19T09:51:26.971Z,36.40
2018-07-19T09:53:55.182Z,37.20
2018-07-19T09:56:23.383Z,37.00
2018-07-19T09:58:50.827Z,37.00
2018-07-19T10:01:19.331Z,36.10
2018-07-19T10:03:47.544Z,37.00
2018-07-19T10:06:15.752Z,36.80
2018-07-19T10:08:43.979Z,36.80
2018-07-19T10:11:12.179Z,36.80
2018-07-19T10:13:40.409Z,37.30
2018-07-19T10:16:08.594Z,37.10
2018-07-19T10:18:36.800Z,36.80
2018-07-19T10:21:05.014Z,36.10
2018-07-19T10:23:33.270Z,34.90
2018-07-19T10:26:01.424Z,34.40
2018-07-19T10:28:29.668Z,32.60
2018-07-19T10:30:57.835Z,32.30
2018-07-19T10:33:26.036Z,32.90
2018-07-19T10:35:54.247Z,32.50
2018-07-19T10:38:22.459Z,32.50
2018-07-19T10:40:50.665Z,33.10
2018-07-19T10:43:18.868Z,33.60
2018-07-19T10:45:47.074Z,32.50
2018-07-19T10:48:15.278Z,32.50
2018-07-19T10:50:43.492Z,32.50
2018-07-19T10:53:11.694Z,32.30
2018-07-19T10:55:39.913Z,33.30
2018-07-19T10:58:08.109Z,33.50
2018-07-19T11:00:36.324Z,33.60
2018-07-19T11:03:04.531Z,33.40
2018-07-19T11:05:32.737Z,33.10
2018-07-19T11:08:00.940Z,32.80
2018-07-19T11:10:29.158Z,31.90
2018-07-19T11:12:57.371Z,32.10
2018-07-19T11:15:25.584Z,31.70
2018-07-19T11:17:53.795Z,31.30
2018-07-19T11:20:22.002Z,31.50
2018-07-19T11:22:50.229Z,30.70
2018-07-19T11:25:18.434Z,31.00
2018-07-19T11:27:46.635Z,31.10
2018-07-19T11:30:14.883Z,31.70
2018-07-19T11:32:43.085Z,32.90
2018-07-19T11:35:11.345Z,34.20
2018-07-19T11:37:39.503Z,34.00
2018-07-19T11:40:07.715Z,33.90
2018-07-19T11:42:35.914Z,34.00
2018-07-19T11:45:04.135Z,34.40
2018-07-19T11:47:32.340Z,34.30
2018-07-19T11:50:00.584Z,34.40
2018-07-19T11:52:28.755Z,34.30
2018-07-19T11:54:56.959Z,33.70
2018-07-19T11:57:25.171Z,34.20
2018-07-19T11:59:53.378Z,34.40
2018-07-19T12:02:21.587Z,33.70
2018-07-19T12:04:49.806Z,33.70
2018-07-19T12:07:18.016Z,34.40
2018-07-19T12:09:46.224Z,34.10
2018-07-19T12:12:14.447Z,33.40
2018-07-19T12:14:42.654Z,32.20
2018-07-19T12:17:10.869Z,31.80
2018-07-19T12:19:39.073Z,30.70
2018-07-19T12:22:07.281Z,29.80
2018-07-19T12:24:35.484Z,29.00
2018-07-19T12:27:03.708Z,29.50
2018-07-19T12:29:31.937Z,29.50
2018-07-19T12:32:00.131Z,29.60
2018-07-19T12:34:28.330Z,30.00
2018-07-19T12:36:56.560Z,30.00
2018-07-19T12:39:24.744Z,30.40
2018-07-19T12:41:52.953Z,29.40
2018-07-19T12:44:21.151Z,29.40
2018-07-19T12:46:49.367Z,29.40
2018-07-19T12:49:17.575Z,29.00
2018-07-19T12:51:45.788Z,28.40
2018-07-19T12:54:13.983Z,27.90
2018-07-19T12:56:42.191Z,27.50
2018-07-19T12:59:10.395Z,27.10
2018-07-19T13:01:38.603Z,27.30
2018-07-19T13:04:06.802Z,27.60
2018-07-19T13:06:35.011Z,27.50
2018-07-19T13:09:03.211Z,26.70
2018-07-19T13:11:31.417Z,27.10
2018-07-19T13:13:59.619Z,28.00
2018-07-19T13:16:27.827Z,28.90
2018-07-19T13:18:56.033Z,28.00
2018-07-19T13:21:24.236Z,27.60
2018-07-19T13:23:52.438Z,27.40
2018-07-19T13:26:20.659Z,27.40
2018-07-19T13:28:48.863Z,28.10
2018-07-19T13:31:17.075Z,28.00
2018-07-19T13:33:45.284Z,27.60
2018-07-19T13:36:13.486Z,27.20
2018-07-19T13:38:41.694Z,27.50
2018-07-19T13:41:09.911Z,27.00
2018-07-19T13:43:38.163Z,26.60
2018-07-19T13:46:06.351Z,26.70
2018-07-19T13:48:34.570Z,27.00
2018-07-19T13:51:02.804Z,27.10
2018-07-19T13:53:57.844Z,27.30
2018-07-19T13:56:26.047Z,27.50
2018-07-19T13:58:54.255Z,28.70
2018-07-19T14:01:22.467Z,28.30
2018-07-19T14:03:50.668Z,28.10
2018-07-19T14:06:18.879Z,27.60
2018-07-19T14:08:47.090Z,26.70
2018-07-19T14:11:15.303Z,26.30
2018-07-19T14:13:42.743Z,26.30
2018-07-19T14:16:10.952Z,26.20
2018-07-19T14:18:39.155Z,25.40
2018-07-19T14:21:07.364Z,25.80
2018-07-19T14:23:34.812Z,25.80
2018-07-19T14:26:03.006Z,25.50
2018-07-19T14:28:31.215Z,25.40
2018-07-19T14:30:59.420Z,25.40
2018-07-19T14:33:27.626Z,26.10
2018-07-19T14:35:55.829Z,26.70
2018-07-19T14:38:24.044Z,27.50
2018-07-19T14:40:52.244Z,27.90
2018-07-19T14:43:20.451Z,28.20
2018-07-19T14:45:48.656Z,28.50
2018-07-19T14:48:16.860Z,28.60
2018-07-19T14:50:45.076Z,28.60
2018-07-19T14:53:13.296Z,28.90
2018-07-19T14:55:40.735Z,28.90
2018-07-19T14:58:08.946Z,28.90
2018-07-19T15:00:37.150Z,29.20
2018-07-19T15:03:05.365Z,29.00
2018-07-19T15:05:33.570Z,29.00
2018-07-19T15:08:01.783Z,29.20
2018-07-19T15:10:29.996Z,30.00
2018-07-19T15:12:58.199Z,30.40
2018-07-19T15:15:26.434Z,30.20
2018-07-19T15:17:54.620Z,30.70
2018-07-19T15:20:23.652Z,30.10
2018-07-19T15:22:51.855Z,29.90
2018-07-19T15:25:20.059Z,29.50
2018-07-19T15:27:48.271Z,30.00
2018-07-19T15:30:16.487Z,29.00
2018-07-19T15:32:44.717Z,29.60
2018-07-19T15:35:12.925Z,29.30
2018-07-19T15:37:41.154Z,28.80
2018-07-19T15:40:09.360Z,28.90
2018-07-19T15:42:37.575Z,28.70
2018-07-19T15:45:05.773Z,28.50
2018-07-19T15:47:33.983Z,28.30
2018-07-19T15:50:02.187Z,29.50
2018-07-19T15:52:30.399Z,29.50
2018-07-19T15:54:58.608Z,29.10
2018-07-19T15:57:26.815Z,28.80
2018-07-19T15:59:55.021Z,28.70
2018-07-19T16:02:23.238Z,28.00
2018-07-19T16:04:51.443Z,28.20
2018-07-19T16:07:19.659Z,27.40
2018-07-19T16:09:47.862Z,27.60
2018-07-19T16:12:16.071Z,27.00
2018-07-19T16:14:44.284Z,26.60
2018-07-19T16:17:12.491Z,27.40
2018-07-19T16:19:40.699Z,27.00
2018-07-19T16:22:08.900Z,27.20
2018-07-19T16:24:37.115Z,26.70
2018-07-19T16:27:05.315Z,26.90
2018-07-19T16:29:33.530Z,26.80
2018-07-19T16:32:01.738Z,27.00
2018-07-19T16:34:29.947Z,27.60
2018-07-19T16:36:58.148Z,28.40
2018-07-19T16:39:25.595Z,28.40
2018-07-19T16:41:53.808Z,28.80
2018-07-19T16:44:22.011Z,29.20
2018-07-19T16:46:50.215Z,29.90
2018-07-19T16:49:18.431Z,29.90
2018-07-19T16:51:46.622Z,30.10
2018-07-19T16:54:14.834Z,30.90
2018-07-19T16:56:43.040Z,30.90
2018-07-19T16:59:11.314Z,31.40
2018-07-19T17:01:39.523Z,31.50
2018-07-19T17:04:07.738Z,31.10
2018-07-19T17:06:35.942Z,31.10
2018-07-19T17:09:04.182Z,32.00
2018-07-19T17:11:32.351Z,33.30
2018-07-19T17:14:00.566Z,33.30
2018-07-19T17:16:28.775Z,33.30
2018-07-19T17:18:56.982Z,32.30
2018-07-19T17:21:25.187Z,31.10
2018-07-19T17:23:53.412Z,30.80
2018-07-19T17:26:21.612Z,28.90
2018-07-19T17:28:49.832Z,28.30
2018-07-19T17:31:18.041Z,27.70
2018-07-19T17:33:46.258Z,27.30
2018-07-19T17:36:14.474Z,26.20
2018-07-19T17:38:42.684Z,25.80
2018-07-19T17:41:10.950Z,25.40
2018-07-19T17:43:39.148Z,24.40
2018-07-19T17:46:07.392Z,24.30
2018-07-19T17:48:35.611Z,23.30
2018-07-19T17:51:03.817Z,23.30
2018-07-19T17:53:32.049Z,24.10
2018-07-19T17:56:00.261Z,24.60
2018-07-19T17:58:28.467Z,25.00
2018-07-19T18:00:56.668Z,25.30
2018-07-19T18:03:24.118Z,25.30
2018-07-19T18:05:52.323Z,26.70
2018-07-19T18:08:20.552Z,27.70
2018-07-19T18:10:48.779Z,28.20
2018-07-19T18:13:16.964Z,28.70
2018-07-19T18:15:45.181Z,29.00
2018-07-19T18:18:13.397Z,28.90
2018-07-19T18:20:41.607Z,29.00
2018-07-19T18:23:09.803Z,29.80
2018-07-19T18:25:38.011Z,31.10
2018-07-19T18:28:06.231Z,32.30
2018-07-19T18:30:34.447Z,31.00
2018-07-19T18:33:02.655Z,30.50
2018-07-19T18:35:30.871Z,30.40
2018-07-19T18:37:59.075Z,30.30
2018-07-19T18:40:27.294Z,30.50
2018-07-19T18:42:55.499Z,31.50
2018-07-19T18:45:23.715Z,32.90
2018-07-19T18:47:51.956Z,34.60
2018-07-19T18:50:20.131Z,36.30
2018-07-19T18:52:48.335Z,37.80
2018-07-19T18:55:16.546Z,39.00
2018-07-19T18:57:44.766Z,40.00
2018-07-19T19:00:12.978Z,40.90
2018-07-19T19:02:41.207Z,41.80
2018-07-19T19:05:09.415Z,42.60
2018-07-19T19:07:37.673Z,43.70
2018-07-19T19:10:05.874Z,44.40
2018-07-19T19:12:34.088Z,45.00
2018-07-19T19:15:02.302Z,45.40
2018-07-19T19:17:30.511Z,46.10
2018-07-19T19:19:58.736Z,46.60
2018-07-19T19:22:26.942Z,47.10
2018-07-19T19:24:55.167Z,47.30
2018-07-19T19:27:23.375Z,47.40
2018-07-19T19:29:51.590Z,47.50
2018-07-19T19:32:19.808Z,47.60
2018-07-19T19:34:48.019Z,47.90
2018-07-19T19:37:16.226Z,48.20
2018-07-19T19:39:44.454Z,48.80
2018-07-19T19:42:13.434Z,49.30
2018-07-19T19:44:41.695Z,49.80
2018-07-19T19:47:10.030Z,50.20
2018-07-19T19:49:38.495Z,51.00
2018-07-19T19:52:06.704Z,50.90
2018-07-19T19:54:34.146Z,50.90
2018-07-19T19:57:02.399Z,52.00
2018-07-19T19:59:29.839Z,52.00
2018-07-19T20:01:58.051Z,52.00
2018-07-19T20:04:26.279Z,52.40
2018-07-19T20:06:54.527Z,52.70
2018-07-19T20:09:22.753Z,52.90
2018-07-19T20:11:50.963Z,53.30
2018-07-19T20:14:19.171Z,53.70
2018-07-19T20:16:47.393Z,54.10
2018-07-19T20:19:15.607Z,54.60
2018-07-19T20:21:43.815Z,55.00
2018-07-19T20:24:12.027Z,55.50
2018-07-19T20:26:40.238Z,55.90
2018-07-19T20:29:08.446Z,56.60
2018-07-19T20:31:36.666Z,57.00
2018-07-19T20:34:04.879Z,57.80
2018-07-19T20:36:33.091Z,57.20
2018-07-19T20:39:00.535Z,57.20
2018-07-19T20:41:28.751Z,57.70
2018-07-19T20:43:56.950Z,58.00
2018-07-19T20:46:25.166Z,58.20
2018-07-19T20:48:53.382Z,58.00
2018-07-19T20:51:21.596Z,58.20
2018-07-19T20:53:49.802Z,58.50
2018-07-19T20:56:18.023Z,58.70
2018-07-19T20:58:46.231Z,58.90
2018-07-19T21:01:14.447Z,59.20
2018-07-19T21:03:42.651Z,59.60
2018-07-19T21:06:10.869Z,59.60
2018-07-19T21:08:39.079Z,60.00
2018-07-19T21:11:07.287Z,60.90
2018-07-19T21:13:35.497Z,61.20
2018-07-19T21:16:03.706Z,60.90
2018-07-19T21:18:31.144Z,60.90
2018-07-19T21:20:59.359Z,61.30
2018-07-19T21:23:27.574Z,61.20
2018-07-19T21:25:55.791Z,61.70
2018-07-19T21:28:23.999Z,62.30
2018-07-19T21:30:52.220Z,62.30
2018-07-19T21:33:20.427Z,62.60
2018-07-19T21:35:48.634Z,62.90
2018-07-19T21:38:16.838Z,63.30
2018-07-19T21:40:45.055Z,63.30
2018-07-19T21:43:13.279Z,63.30
2018-07-19T21:45:41.488Z,64.10
2018-07-19T21:48:09.699Z,64.50
2018-07-19T21:50:37.919Z,64.80
2018-07-19T21:53:06.126Z,64.60
2018-07-19T21:55:34.344Z,64.60
2018-07-19T21:58:01.787Z,64.40
2018-07-19T22:00:29.998Z,64.40
2018-07-19T22:02:58.215Z,65.10
2018-07-19T22:05:26.425Z,65.00
2018-07-19T22:07:54.638Z,65.00
2018-07-19T22:10:23.242Z,65.10
2018-07-19T22:12:51.451Z,64.90
2018-07-19T22:15:19.659Z,65.30
2018-07-19T22:17:47.884Z,65.90
2018-07-19T22:20:16.083Z,66.30
2018-07-19T22:22:44.302Z,66.90
2018-07-19T22:25:12.515Z,66.60
2018-07-19T22:27:40.726Z,66.40
2018-07-19T22:30:08.938Z,66.60
2018-07-19T22:32:37.151Z,66.80
2018-07-19T22:35:05.361Z,66.70
2018-07-19T22:37:33.575Z,67.10
2018-07-19T22:40:01.791Z,68.00
2018-07-19T22:42:30.007Z,67.40
2018-07-19T22:44:58.215Z,67.70
2018-07-19T22:47:26.439Z,68.10
2018-07-19T22:49:54.643Z,68.50
2018-07-19T22:52:22.862Z,68.50
2018-07-19T22:54:51.067Z,68.50
2018-07-19T22:57:19.274Z,68.90
2018-07-19T22:59:47.487Z,69.00
2018-07-19T23:02:15.700Z,69.40
2018-07-19T23:04:43.903Z,69.80
2018-07-19T23:07:12.120Z,69.90
2018-07-19T23:09:40.327Z,69.70
2018-07-19T23:12:08.546Z,70.00
2018-07-19T23:14:36.755Z,70.30
2018-07-19T23:17:04.207Z,70.30
2018-07-19T23:19:32.422Z,70.60
2018-07-19T23:22:00.645Z,71.70
2018-07-19T23:24:28.855Z,71.10
2018-07-19T23:26:57.068Z,71.40
2018-07-19T23:29:25.279Z,71.70
2018-07-19T23:31:53.486Z,72.20
2018-07-19T23:34:21.705Z,72.30
2018-07-19T23:36:49.154Z,72.30
2018-07-19T23:39:17.363Z,72.60
2018-07-19T23:41:45.579Z,72.70
2018-07-19T23:44:13.020Z,72.70
2018-07-19T23:46:41.230Z,73.30
2018-07-19T23:49:09.443Z,73.20
2018-07-19T23:51:37.675Z,73.70
2018-07-19T23:54:05.871Z,74.10
2018-07-19T23:56:34.079Z,74.10
2018-07-19T23:59:02.295Z,74.10
